Time;durP1;ratioP1;P1;durP2;ratioP2;P2;SDS_P1;SDS_P2;PMS_P1;PMS_P2;Temp;Humidity;BMP_temperature;BMP_pressure;BME280_temperature;BME280_humidity;BME280_pressure;Samples;Min_cycle;Max_cycle;Signal;HPM_P1;HPM_P2
2021/12/21 00:01:08;;;;;;;10.68;6.75;;;10.70;83.80;;;;;;4936560;29;20024;-83
2021/12/21 00:03:34;;;;;;;12.45;7.80;;;10.70;83.80;;;;;;4940843;29;20062;-85
2021/12/21 00:05:59;;;;;;;11.43;6.57;;;10.70;83.80;;;;;;4942279;29;20023;-85
2021/12/21 00:08:25;;;;;;;11.63;6.70;;;10.70;83.90;;;;;;4943537;29;20046;-85
2021/12/21 00:10:50;;;;;;;11.40;6.47;;;10.70;83.90;;;;;;4943218;29;20032;-85
2021/12/21 00:16:05;;;;;;;;;;;10.70;83.90;;;;;;4943730;29;20423;-85
2021/12/21 00:21:19;;;;;;;11.80;6.78;;;10.70;84.00;;;;;;4942566;29;20027;-84
2021/12/21 00:23:48;;;;;;;10.57;6.70;;;10.70;84.00;;;;;;4941568;29;20435;-85
2021/12/21 00:26:17;;;;;;;11.02;6.28;;;10.70;83.90;;;;;;4939966;29;20031;-85
2021/12/21 00:28:55;;;;;;;9.27;5.68;;;10.70;84.00;;;;;;4939917;29;20111;-84
2021/12/21 00:31:21;;;;;;;9.98;6.40;;;10.70;84.00;;;;;;4941100;29;20048;-84
2021/12/21 00:33:47;;;;;;;9.80;6.15;;;10.70;84.00;;;;;;4940465;29;20028;-84
2021/12/21 00:36:15;;;;;;;10.02;6.25;;;10.70;84.00;;;;;;4940180;29;20047;-85
2021/12/21 00:38:41;;;;;;;9.95;6.05;;;10.70;84.00;;;;;;4940555;29;20019;-84
2021/12/21 00:41:07;;;;;;;9.77;5.82;;;10.70;84.00;;;;;;4940468;29;20086;-84
2021/12/21 00:43:33;;;;;;;8.43;5.68;;;10.70;83.90;;;;;;4938841;29;20023;-83
2021/12/21 00:45:58;;;;;;;9.32;5.85;;;10.70;84.00;;;;;;4938364;29;20028;-83
2021/12/21 00:48:29;;;;;;;9.65;6.20;;;10.70;84.00;;;;;;4950775;23;20455;-81
2021/12/21 00:50:59;;;;;;;11.00;7.00;;;10.70;84.00;;;;;;4921322;29;20046;-82
2021/12/21 00:53:26;;;;;;;10.15;6.47;;;10.70;84.00;;;;;;4938097;29;20028;-80
2021/12/21 00:55:53;;;;;;;9.85;6.68;;;10.70;84.00;;;;;;4920887;29;20483;-81
2021/12/21 00:58:19;;;;;;;9.68;6.45;;;10.70;84.00;;;;;;4937762;29;20032;-81
2021/12/21 01:00:45;;;;;;;10.27;6.63;;;10.70;84.00;;;;;;4937269;29;20087;-81
2021/12/21 01:03:13;;;;;;;9.60;6.40;;;10.70;84.00;;;;;;4921145;29;20027;-81
2021/12/21 01:05:54;;;;;;;11.00;7.13;;;10.70;84.00;;;;;;4920369;29;20403;-81
2021/12/21 01:08:24;;;;;;;8.43;5.78;;;10.70;84.00;;;;;;4920675;29;20032;-82
2021/12/21 01:11:36;;;;;;;10.02;6.43;;;10.70;84.00;;;;;;4920784;29;20078;-83
2021/12/21 01:13:56;;;;;;;9.77;6.40;;;10.70;84.00;;;;;;4930262;29;20063;-81
2021/12/21 01:16:35;;;;;;;9.02;6.25;;;10.70;84.00;;;;;;4920966;29;20030;-83
2021/12/21 01:19:23;;;;;;;10.73;6.05;;;10.70;84.00;;;;;;4920871;29;20027;-81
2021/12/21 01:22:04;;;;;;;9.65;6.50;;;10.70;84.10;;;;;;4937905;29;20515;-82
2021/12/21 01:33:12;;;;;;;10.27;5.82;;;10.70;83.80;;;;;;4937688;29;20110;-82
2021/12/21 01:35:12;;;;;;;8.25;5.30;;;10.70;83.90;;;;;;4927118;29;20086;-83
2021/12/21 01:51:11;;;;;;;8.13;5.80;;;10.70;83.80;;;;;;4937815;29;20559;-81
2021/12/21 01:53:37;;;;;;;8.10;5.60;;;10.60;83.60;;;;;;4920001;29;20035;-82
2021/12/21 01:56:04;;;;;;;8.48;5.80;;;10.70;83.80;;;;;;4920042;29;20398;-81
2021/12/21 01:58:30;;;;;;;8.65;5.70;;;10.60;83.60;;;;;;4919798;29;20443;-81
2021/12/21 02:00:55;;;;;;;8.43;5.63;;;10.60;83.50;;;;;;4920078;29;20027;-81
2021/12/21 02:03:21;;;;;;;8.60;4.93;;;10.70;83.50;;;;;;4936431;29;20027;-79
2021/12/21 02:05:47;;;;;;;8.18;5.35;;;10.60;83.30;;;;;;4919524;29;20028;-82
2021/12/21 02:08:13;;;;;;;8.13;5.15;;;10.70;83.50;;;;;;4919376;29;20027;-81
2021/12/21 02:10:40;;;;;;;7.97;5.15;;;10.70;83.30;;;;;;4919959;29;20111;-81
2021/12/21 02:13:05;;;;;;;9.15;5.95;;;10.60;83.30;;;;;;4922449;29;20047;-82
2021/12/21 02:15:31;;;;;;;8.25;5.38;;;10.70;83.40;;;;;;4940748;29;20427;-81
2021/12/21 02:20:40;;;;;;;7.55;5.35;;;10.60;83.20;;;;;;4941080;29;20483;-81
2021/12/21 02:23:11;;;;;;;;;;;10.70;83.30;;;;;;4924207;29;20035;-83
2021/12/21 02:28:37;;;;;;;9.18;5.50;;;10.70;83.20;;;;;;4940340;29;20422;-82
2021/12/21 02:31:03;;;;;;;7.90;5.55;;;10.70;83.20;;;;;;4923531;29;20072;-81
2021/12/21 02:33:28;;;;;;;8.73;5.63;;;10.70;83.10;;;;;;4923081;29;20543;-82
2021/12/21 02:35:55;;;;;;;7.72;5.25;;;10.60;83.00;;;;;;4923491;29;20526;-81
2021/12/21 02:38:21;;;;;;;8.75;5.63;;;10.60;83.00;;;;;;4923048;29;20430;-81
2021/12/21 02:40:46;;;;;;;7.72;4.95;;;10.60;83.10;;;;;;4940094;29;20119;-81
2021/12/21 02:43:13;;;;;;;7.03;5.20;;;10.60;83.10;;;;;;4923077;29;20030;-82
2021/12/21 02:45:40;;;;;;;7.85;5.63;;;10.60;83.00;;;;;;4923170;29;20063;-81
2021/12/21 02:48:07;;;;;;;7.88;5.30;;;10.60;83.10;;;;;;4939834;29;20086;-82
2021/12/21 02:50:33;;;;;;;9.45;5.22;;;10.60;83.10;;;;;;4923070;29;20031;-81
2021/12/21 02:52:59;;;;;;;9.05;5.57;;;10.60;83.10;;;;;;4939960;29;20019;-82
2021/12/21 02:55:26;;;;;;;7.82;5.47;;;10.70;83.20;;;;;;4923016;29;20062;-81
2021/12/21 02:57:52;;;;;;;7.50;5.30;;;10.60;83.00;;;;;;4922901;29;20122;-81
2021/12/21 03:00:17;;;;;;;8.10;5.28;;;10.60;83.10;;;;;;4922994;29;20032;-82
2021/12/21 03:02:43;;;;;;;7.85;4.82;;;10.60;83.00;;;;;;4923102;29;20506;-81
2021/12/21 03:05:09;;;;;;;8.02;5.45;;;10.60;83.00;;;;;;4922776;29;20027;-82
2021/12/21 03:10:32;;;;;;;8.80;5.80;;;10.60;83.40;;;;;;4907664;29;20510;-82
2021/12/21 03:15:29;;;;;;;6.95;4.90;;;10.70;83.20;;;;;;4940424;29;20490;-82
2021/12/21 03:17:56;;;;;;;7.13;5.07;;;10.70;83.30;;;;;;4922849;29;20070;-84
2021/12/21 03:20:23;;;;;;;7.30;4.88;;;10.70;83.30;;;;;;4922758;29;20040;-81
2021/12/21 03:22:49;;;;;;;7.60;5.07;;;10.70;83.00;;;;;;4922653;29;20034;-81
2021/12/21 03:25:15;;;;;;;7.95;5.05;;;10.70;83.00;;;;;;4939031;29;20576;-80
2021/12/21 03:27:40;;;;;;;7.57;5.05;;;10.80;83.10;;;;;;4922096;29;20034;-82
2021/12/21 03:30:10;;;;;;;7.15;5.05;;;10.80;82.80;;;;;;4921882;29;20075;-81
2021/12/21 03:32:35;;;;;;;7.32;5.00;;;10.70;82.70;;;;;;4922334;29;20123;-81
2021/12/21 03:35:01;;;;;;;7.18;4.80;;;10.80;83.30;;;;;;4922187;29;20056;-81
2021/12/21 03:37:26;;;;;;;8.40;5.35;;;10.90;82.70;;;;;;4922126;29;20032;-81
2021/12/21 03:39:54;;;;;;;7.38;5.30;;;10.80;82.70;;;;;;4922399;29;20067;-83
2021/12/21 03:42:20;;;;;;;7.30;5.22;;;10.70;82.50;;;;;;4937167;29;20035;-82
2021/12/21 03:44:47;;;;;;;7.18;5.20;;;10.80;83.10;;;;;;4915229;29;20032;-81
2021/12/21 03:47:16;;;;;;;7.50;5.25;;;10.80;82.70;;;;;;4939000;29;20038;-81
2021/12/21 03:52:13;;;;;;;8.25;5.60;;;10.70;82.30;;;;;;4939068;29;20023;-81
2021/12/21 03:54:41;;;;;;;7.70;5.40;;;10.70;82.30;;;;;;4921681;29;20035;-81
2021/12/21 03:57:06;;;;;;;7.07;5.15;;;10.70;82.40;;;;;;4921412;29;20028;-82
2021/12/21 03:59:32;;;;;;;8.82;5.60;;;10.60;82.40;;;;;;4938597;29;20115;-80
2021/12/21 04:01:58;;;;;;;8.15;5.40;;;10.70;82.60;;;;;;4938869;29;20455;-82
2021/12/21 04:04:24;;;;;;;7.38;5.40;;;10.60;82.70;;;;;;4921534;29;20058;-82
2021/12/21 04:06:50;;;;;;;7.10;5.13;;;10.60;82.90;;;;;;4921134;29;20423;-82
2021/12/21 04:09:16;;;;;;;7.63;5.45;;;10.60;82.90;;;;;;4921505;29;20024;-81
2021/12/21 04:11:42;;;;;;;7.72;5.60;;;10.60;83.10;;;;;;4921477;29;20415;-83
2021/12/21 04:14:08;;;;;;;7.32;5.40;;;10.60;83.10;;;;;;4938334;29;20143;-81
2021/12/21 04:16:34;;;;;;;7.43;5.35;;;10.60;83.10;;;;;;4938375;29;20059;-82
2021/12/21 04:18:59;;;;;;;7.45;5.50;;;10.50;83.00;;;;;;4921047;29;20034;-79
2021/12/21 04:21:25;;;;;;;8.70;5.85;;;10.50;83.20;;;;;;4921515;29;20402;-81
2021/12/21 04:23:51;;;;;;;8.35;5.65;;;10.60;83.30;;;;;;4920866;29;20514;-81
2021/12/21 04:26:17;;;;;;;8.05;5.75;;;10.50;83.20;;;;;;4938100;29;20036;-82
2021/12/21 04:28:44;;;;;;;9.30;5.88;;;10.50;83.20;;;;;;4937900;29;20032;-80
2021/12/21 04:31:10;;;;;;;8.48;5.80;;;10.50;83.10;;;;;;4938136;29;20120;-81
2021/12/21 04:33:38;;;;;;;8.30;5.50;;;10.50;83.20;;;;;;4937487;29;20055;-81
2021/12/21 04:36:04;;;;;;;7.70;5.55;;;10.50;83.10;;;;;;4921187;29;20078;-82
2021/12/21 04:38:34;;;;;;;7.75;5.45;;;10.50;83.10;;;;;;4937814;29;20028;-81
2021/12/21 04:41:12;;;;;;;8.27;5.93;;;10.60;83.70;;;;;;4921286;29;20024;-81
2021/12/21 04:43:39;;;;;;;7.68;5.68;;;10.50;83.10;;;;;;4938020;29;20561;-82
2021/12/21 04:46:05;;;;;;;8.32;5.55;;;10.60;83.10;;;;;;4938125;29;20042;-81
2021/12/21 04:48:30;;;;;;;7.95;5.50;;;10.50;83.50;;;;;;4920379;29;20395;-81
2021/12/21 04:50:56;;;;;;;6.95;5.25;;;10.50;83.00;;;;;;4937999;29;20031;-82
2021/12/21 04:53:22;;;;;;;8.88;5.75;;;10.50;83.00;;;;;;4920580;29;20055;-81
2021/12/21 04:55:48;;;;;;;7.57;5.47;;;10.50;83.10;;;;;;4937722;29;20036;-81
2021/12/21 04:58:14;;;;;;;7.63;5.70;;;10.50;82.90;;;;;;4920350;29;20028;-81
2021/12/21 05:00:40;;;;;;;7.45;5.53;;;10.50;83.00;;;;;;4920913;29;20028;-81
2021/12/21 05:03:06;;;;;;;7.43;5.50;;;10.60;83.00;;;;;;4920851;29;20028;-81
2021/12/21 05:05:32;;;;;;;8.27;5.80;;;10.50;82.90;;;;;;4920223;29;20119;-82
2021/12/21 05:10:44;;;;;;;8.48;5.70;;;10.50;82.90;;;;;;4937721;29;20059;-80
2021/12/21 05:13:10;;;;;;;7.90;5.70;;;10.50;82.90;;;;;;4920317;29;20024;-82
2021/12/21 05:15:36;;;;;;;7.38;5.50;;;10.50;82.90;;;;;;4936884;29;20038;-81
2021/12/21 05:18:02;;;;;;;7.78;5.63;;;10.50;82.90;;;;;;4920338;29;20063;-80
2021/12/21 05:20:27;;;;;;;8.65;5.70;;;10.50;82.80;;;;;;4937161;29;20070;-80
2021/12/21 05:22:53;;;;;;;8.65;5.43;;;10.50;82.90;;;;;;4920451;29;20027;-81
2021/12/21 05:25:18;;;;;;;7.82;5.43;;;10.50;82.90;;;;;;4937559;29;20032;-83
2021/12/21 05:27:44;;;;;;;8.07;5.63;;;10.60;82.80;;;;;;4938864;29;20023;-83
2021/12/21 05:30:11;;;;;;;8.05;5.70;;;10.50;82.80;;;;;;4921885;29;20067;-81
2021/12/21 05:32:37;;;;;;;8.00;5.80;;;10.50;82.80;;;;;;4938433;29;20114;-82
2021/12/21 05:35:03;;;;;;;8.02;5.95;;;10.50;82.60;;;;;;4917727;29;20140;-82
2021/12/21 05:37:28;;;;;;;8.27;5.85;;;10.50;82.70;;;;;;4935903;29;20062;-79
2021/12/21 05:40:09;;;;;;;8.23;5.93;;;10.50;82.60;;;;;;4920669;29;20075;-80
2021/12/21 05:42:34;;;;;;;8.52;5.72;;;10.50;82.60;;;;;;4919642;29;20030;-81
2021/12/21 05:45:00;;;;;;;8.32;6.00;;;10.50;82.70;;;;;;4937315;29;20098;-80
2021/12/21 05:47:25;;;;;;;7.78;5.80;;;10.50;82.60;;;;;;4955832;23;20541;-81
2021/12/21 05:49:51;;;;;;;8.15;5.80;;;10.50;82.60;;;;;;4925206;29;20024;-80
2021/12/21 05:52:16;;;;;;;8.05;6.05;;;10.50;82.60;;;;;;4915107;29;20031;-79
2021/12/21 05:54:42;;;;;;;8.80;6.47;;;10.50;82.40;;;;;;4914960;29;20126;-80
2021/12/21 05:57:07;;;;;;;9.23;6.45;;;10.50;82.30;;;;;;4926632;29;20077;-80
2021/12/21 05:59:33;;;;;;;8.15;5.85;;;10.50;82.50;;;;;;4920491;29;20631;-82
2021/12/21 06:01:59;;;;;;;8.18;6.20;;;10.50;82.30;;;;;;4916956;29;20035;-80
2021/12/21 06:04:25;;;;;;;9.38;5.97;;;10.50;82.20;;;;;;4916246;29;20032;-81
2021/12/21 06:06:51;;;;;;;9.35;5.80;;;10.50;81.70;;;;;;4880662;29;20039;-82
2021/12/21 06:09:16;;;;;;;8.65;6.10;;;10.50;81.10;;;;;;4911918;29;20024;-82
2021/12/21 06:11:50;;;;;;;9.02;6.07;;;10.50;81.20;;;;;;4903415;29;20052;-81
2021/12/21 06:28:09;;;;;;;7.50;5.90;;;10.50;81.10;;;;;;4877940;29;20421;-84
2021/12/21 06:30:37;;;;;;;10.07;6.20;;;10.50;81.50;;;;;;4878878;29;20065;-83
2021/12/21 06:33:04;;;;;;;8.93;6.40;;;10.50;81.30;;;;;;4879541;29;20053;-83
2021/12/21 06:35:29;;;;;;;9.13;6.10;;;10.50;81.10;;;;;;4879625;29;20040;-84
2021/12/21 06:37:55;;;;;;;9.00;6.03;;;10.50;81.20;;;;;;5024276;23;20053;-82
2021/12/21 06:40:21;;;;;;;12.63;6.88;;;10.50;81.40;;;;;;4878033;29;20068;-84
2021/12/21 06:42:50;;;;;;;11.13;6.70;;;10.50;81.00;;;;;;4878878;29;20029;-85
2021/12/21 06:45:28;;;;;;;10.85;7.13;;;10.50;79.90;;;;;;4877716;29;20565;-82
2021/12/21 06:53:24;;;;;;;11.25;7.30;;;10.40;78.20;;;;;;4859034;29;20121;-81
2021/12/21 06:55:54;;;;;;;10.32;7.40;;;10.40;78.90;;;;;;4858779;29;20124;-83
2021/12/21 06:58:40;;;;;;;10.45;7.18;;;10.40;79.00;;;;;;4859682;29;20026;-82
2021/12/21 07:01:06;;;;;;;10.25;7.28;;;10.40;79.30;;;;;;4860562;29;20095;-81
2021/12/21 07:03:32;;;;;;;11.05;7.53;;;10.40;79.50;;;;;;4862064;29;20035;-84
2021/12/21 07:06:01;;;;;;;10.00;7.18;;;10.40;79.50;;;;;;4860328;29;20148;-83
2021/12/21 07:08:45;;;;;;;;;;;;;;;;;;;;;
2021/12/21 07:11:51;;;;;;;10.02;7.00;;;10.30;79.50;;;;;;4863645;29;20033;-84
2021/12/21 07:20:07;;;;;;;9.95;7.22;;;10.40;79.70;;;;;;4861188;29;20048;-83
2021/12/21 07:22:38;;;;;;;10.55;7.72;;;10.50;79.70;;;;;;4859886;29;20033;-83
2021/12/21 07:25:07;;;;;;;9.50;7.20;;;10.40;79.90;;;;;;4860810;29;20041;-82
2021/12/21 07:27:43;;;;;;;10.77;7.30;;;10.40;79.70;;;;;;4860596;29;20043;-83
2021/12/21 07:30:10;;;;;;;9.75;7.15;;;10.50;79.70;;;;;;4860619;29;20041;-86
2021/12/21 07:32:40;;;;;;;9.27;6.97;;;10.40;79.70;;;;;;4859476;29;20039;-83
2021/12/21 07:35:06;;;;;;;18.50;7.60;;;10.40;79.70;;;;;;4860118;29;20057;-88
2021/12/21 07:37:32;;;;;;;18.90;7.32;;;10.40;79.60;;;;;;4862646;29;20041;-84
2021/12/21 07:39:58;;;;;;;21.10;7.93;;;10.40;79.60;;;;;;4862427;29;20095;-81
2021/12/21 07:42:23;;;;;;;18.50;7.00;;;10.40;78.10;;;;;;4861238;29;20135;-82
2021/12/21 07:44:49;;;;;;;20.48;7.70;;;10.30;76.20;;;;;;4861417;29;20043;-82
2021/12/21 07:47:16;;;;;;;16.05;7.68;;;10.20;76.30;;;;;;4861089;29;20156;-82
2021/12/21 07:49:42;;;;;;;12.23;6.75;;;10.20;77.00;;;;;;4861035;29;20457;-80
2021/12/21 07:52:09;;;;;;;15.63;7.40;;;10.20;77.60;;;;;;4860424;29;20025;-80
2021/12/21 07:54:35;;;;;;;12.13;7.35;;;10.20;78.00;;;;;;4861245;29;20051;-83
2021/12/21 07:57:00;;;;;;;14.27;7.93;;;10.20;78.00;;;;;;4856260;29;20037;-82
2021/12/21 07:59:26;;;;;;;16.98;7.60;;;10.20;77.40;;;;;;4859559;29;20072;-83
2021/12/21 08:01:53;;;;;;;13.30;7.53;;;10.10;77.50;;;;;;4857759;29;20879;-82
2021/12/21 08:04:27;;;;;;;14.18;7.35;;;10.10;77.80;;;;;;4841817;29;20056;-83
2021/12/21 08:06:54;;;;;;;11.18;7.60;;;10.20;78.60;;;;;;4842156;29;20037;-83
2021/12/21 08:09:20;;;;;;;13.52;7.72;;;10.10;78.20;;;;;;4842176;29;20029;-83
2021/12/21 08:27:43;;;;;;;14.05;8.02;;;10.00;73.70;;;;;;4922449;23;20072;-81
2021/12/21 08:30:10;;;;;;;12.38;7.95;;;10.00;75.20;;;;;;4904551;29;20028;-79
2021/12/21 08:32:35;;;;;;;13.45;7.95;;;10.00;75.80;;;;;;4904276;29;20565;-79
2021/12/21 08:35:01;;;;;;;17.75;8.55;;;10.00;76.00;;;;;;4903860;29;20052;-79
2021/12/21 08:37:28;;;;;;;14.18;8.23;;;10.00;75.40;;;;;;4903911;29;20063;-79
2021/12/21 08:39:53;;;;;;;14.82;8.95;;;10.00;75.80;;;;;;4920788;29;20079;-79
2021/12/21 08:42:19;;;;;;;17.63;9.63;;;10.00;75.80;;;;;;4904058;29;20024;-80
2021/12/21 08:44:47;;;;;;;15.93;8.93;;;10.00;76.00;;;;;;4903257;29;20032;-79
2021/12/21 08:47:13;;;;;;;16.65;9.32;;;10.00;76.50;;;;;;4920634;29;20373;-80
2021/12/21 08:49:39;;;;;;;17.13;9.25;;;10.00;76.90;;;;;;4919919;29;20388;-79
2021/12/21 08:52:05;;;;;;;14.80;9.10;;;10.00;77.20;;;;;;4920237;29;20024;-79
2021/12/21 08:54:30;;;;;;;18.65;9.25;;;10.00;77.60;;;;;;4919922;29;20027;-80
2021/12/21 08:56:56;;;;;;;14.38;8.75;;;10.10;77.80;;;;;;4902390;29;20028;-80
2021/12/21 08:59:21;;;;;;;15.45;9.32;;;10.00;77.90;;;;;;4919726;29;20099;-79
2021/12/21 09:01:48;;;;;;;13.32;9.23;;;10.10;78.00;;;;;;4901987;29;20492;-79
2021/12/21 09:04:15;;;;;;;13.82;9.32;;;10.10;78.00;;;;;;4901936;29;20028;-79
2021/12/21 09:06:41;;;;;;;13.90;9.13;;;10.10;78.10;;;;;;4919133;29;20024;-79
2021/12/21 09:09:06;;;;;;;14.02;9.30;;;10.10;78.10;;;;;;4902389;29;20241;-79
2021/12/21 09:11:32;;;;;;;15.55;9.95;;;10.10;78.20;;;;;;4901637;29;20484;-79
2021/12/21 09:13:58;;;;;;;14.07;9.10;;;10.10;78.20;;;;;;4901817;29;20024;-81
2021/12/21 09:16:23;;;;;;;15.77;10.20;;;10.10;78.20;;;;;;4900696;29;20032;-81
2021/12/21 09:18:49;;;;;;;16.95;10.57;;;10.10;78.20;;;;;;4900603;29;20028;-81
2021/12/21 09:21:15;;;;;;;15.10;10.40;;;10.10;78.20;;;;;;4917197;29;20032;-81
2021/12/21 09:23:41;;;;;;;15.40;9.45;;;10.10;78.30;;;;;;4900116;29;20027;-81
2021/12/21 09:26:07;;;;;;;14.57;10.27;;;10.10;78.40;;;;;;4900167;29;20407;-81
2021/12/21 09:28:32;;;;;;;14.18;9.98;;;10.10;78.40;;;;;;4916956;29;20040;-80
2021/12/21 09:30:58;;;;;;;14.55;10.20;;;10.10;78.50;;;;;;4917203;29;20024;-81
2021/12/21 09:33:24;;;;;;;14.98;10.43;;;10.20;78.50;;;;;;4899376;29;20070;-82
2021/12/21 09:35:52;;;;;;;15.25;10.00;;;10.10;78.50;;;;;;4915728;29;20024;-81
2021/12/21 09:38:17;;;;;;;14.77;9.98;;;10.10;78.50;;;;;;4917185;29;20024;-82
2021/12/21 09:40:43;;;;;;;13.57;9.90;;;10.10;78.90;;;;;;4904422;29;20056;-83
2021/12/21 09:43:10;;;;;;;13.90;9.90;;;10.20;79.10;;;;;;4903273;29;20402;-82
2021/12/21 09:45:37;;;;;;;13.10;9.23;;;10.20;79.10;;;;;;4902971;29;20024;-82
2021/12/21 09:48:03;;;;;;;12.93;9.52;;;10.20;79.10;;;;;;4920374;29;20036;-81
2021/12/21 09:50:29;;;;;;;13.57;10.13;;;10.20;79.20;;;;;;4904168;29;20491;-82
2021/12/21 09:52:55;;;;;;;13.40;10.13;;;10.20;79.20;;;;;;4904444;29;20028;-81
2021/12/21 09:55:21;;;;;;;12.82;9.07;;;10.20;79.10;;;;;;4921223;29;20024;-81
2021/12/21 09:57:48;;;;;;;12.77;9.55;;;10.20;79.00;;;;;;4920801;29;20032;-82
2021/12/21 10:00:24;;;;;;;13.43;9.77;;;10.20;79.10;;;;;;4903366;29;20084;-80
2021/12/21 10:02:51;;;;;;;12.65;9.68;;;10.20;79.00;;;;;;4903931;29;20064;-81
2021/12/21 10:05:21;;;;;;;12.02;9.75;;;10.20;78.90;;;;;;4902802;29;20079;-82
2021/12/21 10:08:11;;;;;;;12.65;9.93;;;10.20;78.80;;;;;;4920335;29;20020;-82
2021/12/21 10:10:41;;;;;;;13.23;9.80;;;10.20;78.90;;;;;;4902446;29;20028;-81
2021/12/21 10:13:19;;;;;;;12.80;9.75;;;10.20;78.80;;;;;;4902568;29;20031;-82
2021/12/21 10:15:53;;;;;;;12.50;9.68;;;10.20;79.00;;;;;;4902608;29;20395;-81
2021/12/21 10:18:28;;;;;;;13.35;9.27;;;10.20;78.80;;;;;;4902005;29;20419;-82
2021/12/21 10:20:55;;;;;;;14.85;10.30;;;10.20;78.80;;;;;;4901728;29;20036;-81
2021/12/21 10:23:39;;;;;;;12.88;10.05;;;10.20;78.90;;;;;;4901440;29;20484;-79
2021/12/21 10:26:11;;;;;;;12.57;10.00;;;10.20;78.90;;;;;;4918434;29;20123;-81
2021/12/21 10:28:48;;;;;;;11.75;8.98;;;10.20;79.00;;;;;;4916697;29;20028;-81
2021/12/21 10:31:28;;;;;;;11.68;9.20;;;10.20;78.90;;;;;;4900667;29;20066;-82
2021/12/21 10:33:56;;;;;;;12.88;10.05;;;10.20;78.90;;;;;;4903458;29;20031;-81
2021/12/21 10:36:23;;;;;;;12.02;9.65;;;10.20;79.00;;;;;;4905135;29;20024;-82
2021/12/21 10:38:52;;;;;;;13.57;10.05;;;10.10;79.10;;;;;;4905391;29;20036;-81
2021/12/21 10:41:20;;;;;;;11.63;9.63;;;10.10;79.20;;;;;;4922400;29;20091;-81
2021/12/21 10:43:59;;;;;;;13.25;9.73;;;10.10;79.20;;;;;;4904484;29;20067;-81
2021/12/21 10:46:33;;;;;;;12.52;9.85;;;10.10;79.40;;;;;;4905058;29;20496;-80
2021/12/21 10:49:10;;;;;;;12.80;10.10;;;10.10;79.50;;;;;;4921798;29;20035;-82
2021/12/21 10:51:49;;;;;;;13.05;10.00;;;10.10;79.60;;;;;;4909221;29;20091;-82
2021/12/21 10:54:45;;;;;;;13.20;10.18;;;10.00;79.60;;;;;;4907308;29;20055;-82
2021/12/21 10:57:32;;;;;;;14.10;10.25;;;10.00;79.60;;;;;;4923423;29;20036;-81
2021/12/21 11:00:00;;;;;;;12.80;10.13;;;10.10;79.80;;;;;;4923819;29;20534;-82
2021/12/21 11:02:32;;;;;;;13.23;10.70;;;10.10;79.80;;;;;;4907995;29;20032;-81
2021/12/21 11:05:15;;;;;;;11.90;9.95;;;10.00;79.80;;;;;;4923475;29;20032;-83
2021/12/21 11:10:29;;;;;;;12.55;10.48;;;10.00;79.90;;;;;;4923561;29;20492;-81
2021/12/21 11:13:15;;;;;;;13.10;10.85;;;10.00;79.90;;;;;;4922470;29;20024;-81
2021/12/21 11:15:53;;;;;;;12.93;9.90;;;10.00;79.90;;;;;;4921508;29;20055;-80
2021/12/21 11:18:19;;;;;;;13.25;11.10;;;10.00;80.00;;;;;;4906016;29;20028;-82
2021/12/21 11:20:48;;;;;;;12.48;10.65;;;10.00;80.00;;;;;;4922990;29;20039;-81
2021/12/21 11:23:15;;;;;;;11.63;10.43;;;10.00;80.00;;;;;;4921535;29;20055;-82
2021/12/21 11:25:43;;;;;;;12.63;10.70;;;10.00;80.00;;;;;;4921650;29;20392;-81
2021/12/21 11:28:14;;;;;;;12.00;10.38;;;10.00;80.00;;;;;;4920715;29;20036;-81
2021/12/21 11:30:41;;;;;;;12.70;10.97;;;10.00;80.00;;;;;;4922584;29;20024;-81
2021/12/21 11:33:07;;;;;;;13.15;10.90;;;10.00;80.00;;;;;;4921460;29;20107;-81
2021/12/21 11:38:04;;;;;;;14.30;11.73;;;10.00;80.10;;;;;;4922802;29;20047;-81
2021/12/21 11:40:34;;;;;;;14.80;11.45;;;10.00;80.10;;;;;;4920855;29;20032;-82
2021/12/21 11:43:28;;;;;;;13.20;10.73;;;10.00;80.00;;;;;;4922902;29;20514;-81
2021/12/21 11:46:05;;;;;;;13.98;11.23;;;10.00;79.90;;;;;;4916315;29;20035;-82
2021/12/21 11:48:55;;;;;;;13.82;11.23;;;10.10;80.00;;;;;;4904485;29;20024;-80
2021/12/21 11:51:26;;;;;;;15.07;11.32;;;10.10;80.00;;;;;;4905530;29;20031;-81
2021/12/21 11:53:53;;;;;;;13.43;10.98;;;10.00;80.00;;;;;;4922054;29;20033;-82
2021/12/21 11:56:23;;;;;;;13.60;11.23;;;10.00;80.10;;;;;;4904775;29;20515;-82
2021/12/21 11:58:51;;;;;;;17.05;11.70;;;10.00;80.10;;;;;;4904544;29;20036;-81
2021/12/21 12:01:17;;;;;;;13.88;11.48;;;10.00;80.00;;;;;;4904748;29;20024;-81
2021/12/21 12:03:54;;;;;;;13.57;11.45;;;10.00;80.00;;;;;;4922071;29;20032;-82
2021/12/21 12:06:20;;;;;;;16.70;11.55;;;10.00;80.00;;;;;;4904248;29;20053;-80
2021/12/21 12:08:52;;;;;;;15.77;11.25;;;10.10;80.00;;;;;;4903916;29;20028;-82
2021/12/21 12:11:44;;;;;;;16.33;11.30;;;10.00;80.00;;;;;;4898090;29;20134;-81
2021/12/21 12:14:11;;;;;;;16.05;11.23;;;10.00;80.00;;;;;;4899311;29;20032;-80
2021/12/21 12:16:54;;;;;;;15.65;11.35;;;10.00;80.10;;;;;;4902376;29;20638;-79
2021/12/21 12:19:26;;;;;;;16.58;11.43;;;10.00;80.00;;;;;;4898112;29;20508;-81
2021/12/21 12:22:18;;;;;;;14.70;11.60;;;10.00;80.00;;;;;;4901293;29;20031;-80
2021/12/21 12:24:56;;;;;;;14.73;11.88;;;10.00;79.90;;;;;;4881293;29;20036;-81
2021/12/21 12:27:27;;;;;;;17.52;11.95;;;10.00;78.10;;;;;;4901085;29;20126;-81
2021/12/21 12:29:59;;;;;;;17.67;11.50;;;10.00;77.50;;;;;;4884030;29;20032;-80
2021/12/21 12:32:37;;;;;;;17.23;12.27;;;10.00;77.60;;;;;;4901210;29;20107;-81
2021/12/21 12:35:10;;;;;;;18.23;12.05;;;10.00;78.20;;;;;;4883072;29;20602;-81
2021/12/21 12:37:50;;;;;;;16.40;11.27;;;10.00;78.60;;;;;;4884025;29;20031;-81
2021/12/21 12:40:18;;;;;;;15.15;12.20;;;10.00;78.90;;;;;;4883222;29;20036;-82
2021/12/21 12:42:53;;;;;;;17.33;12.00;;;10.00;79.10;;;;;;4883055;29;20039;-81
2021/12/21 12:45:21;;;;;;;15.07;11.85;;;10.00;79.00;;;;;;4883488;29;20040;-80
2021/12/21 12:47:52;;;;;;;17.10;11.98;;;10.00;78.90;;;;;;4900479;29;20032;-82
2021/12/21 12:50:29;;;;;;;18.33;12.18;;;10.00;79.50;;;;;;4910453;29;20021;-82
2021/12/21 12:53:01;;;;;;;18.63;12.27;;;10.00;79.00;;;;;;4892174;29;20029;-82
2021/12/21 12:55:42;;;;;;;14.75;11.55;;;10.00;79.20;;;;;;4890360;29;20021;-83
2021/12/21 12:58:20;;;;;;;14.63;11.30;;;10.00;79.40;;;;;;4890153;29;20068;-83
2021/12/21 13:00:54;;;;;;;16.92;11.80;;;10.00;79.40;;;;;;4892123;29;20028;-81
2021/12/21 13:03:21;;;;;;;15.80;11.50;;;10.00;79.50;;;;;;4908189;29;20033;-81
2021/12/21 13:05:56;;;;;;;14.15;11.25;;;10.00;79.50;;;;;;4890417;29;20028;-81
2021/12/21 13:08:25;;;;;;;15.10;11.65;;;10.00;79.50;;;;;;4889983;29;20065;-82
2021/12/21 13:10:55;;;;;;;14.02;11.52;;;10.00;79.60;;;;;;4889318;29;20031;-82
2021/12/21 13:13:30;;;;;;;14.13;11.70;;;10.00;79.60;;;;;;4888273;29;20145;-79
2021/12/21 13:15:56;;;;;;;12.95;10.70;;;10.00;79.70;;;;;;4887216;29;20028;-82
2021/12/21 13:18:21;;;;;;;12.80;10.85;;;10.00;79.80;;;;;;4903894;29;20120;-81
2021/12/21 13:20:50;;;;;;;14.10;11.90;;;9.90;79.70;;;;;;4886195;29;20035;-82
2021/12/21 13:23:18;;;;;;;16.60;12.15;;;9.90;78.90;;;;;;4903170;29;20057;-83
2021/12/21 13:26:07;;;;;;;14.10;11.35;;;9.90;78.50;;;;;;4885822;29;20025;-81
2021/12/21 13:28:55;;;;;;;15.15;11.20;;;9.90;78.80;;;;;;4884973;29;20036;-82
2021/12/21 13:31:23;;;;;;;15.98;12.10;;;10.00;79.20;;;;;;4884322;29;20028;-82
2021/12/21 13:33:51;;;;;;;13.48;11.70;;;9.90;79.40;;;;;;4884476;29;20035;-81
2021/12/21 13:36:17;;;;;;;17.38;11.18;;;9.90;78.90;;;;;;4889094;29;20020;-81
2021/12/21 13:38:43;;;;;;;12.73;11.02;;;9.90;78.50;;;;;;4902117;29;20032;-82
2021/12/21 13:41:12;;;;;;;14.63;11.30;;;9.90;78.80;;;;;;4896214;29;20028;-82
2021/12/21 13:43:59;;;;;;;12.93;11.35;;;9.90;79.10;;;;;;4903868;29;20111;-81
2021/12/21 13:46:31;;;;;;;12.35;10.65;;;9.90;79.30;;;;;;4903712;29;20032;-80
2021/12/21 13:48:58;;;;;;;12.75;11.27;;;9.90;79.60;;;;;;4903167;29;20038;-81
2021/12/21 13:51:25;;;;;;;14.38;12.07;;;9.90;79.70;;;;;;4886840;29;20032;-80
2021/12/21 13:53:58;;;;;;;13.98;11.45;;;9.90;79.90;;;;;;4900370;29;20033;-82
2021/12/21 13:56:27;;;;;;;14.18;12.18;;;9.90;79.90;;;;;;4890943;29;20025;-83
2021/12/21 13:58:54;;;;;;;13.52;11.77;;;9.90;80.00;;;;;;4906208;29;20024;-82
2021/12/21 14:01:31;;;;;;;12.80;11.20;;;9.90;80.00;;;;;;4910268;29;20507;-82
2021/12/21 14:04:04;;;;;;;13.43;11.65;;;9.90;80.10;;;;;;4909802;29;20059;-82
2021/12/21 14:06:30;;;;;;;13.25;11.55;;;9.90;80.10;;;;;;4898627;29;20040;-82
2021/12/21 14:08:58;;;;;;;13.82;12.32;;;9.90;80.10;;;;;;4892741;29;20119;-80
2021/12/21 14:11:34;;;;;;;14.77;12.07;;;9.90;80.20;;;;;;4909865;29;20025;-82
2021/12/21 14:14:01;;;;;;;28.15;12.30;;;9.90;80.20;;;;;;4908187;29;20031;-81
2021/12/21 14:16:31;;;;;;;18.95;12.95;;;9.90;80.50;;;;;;4908629;29;20024;-82
2021/12/21 14:18:59;;;;;;;15.48;12.27;;;9.90;73.00;;;;;;4890168;29;20029;-83
2021/12/21 14:21:31;;;;;;;14.18;11.55;;;9.70;70.30;;;;;;4892738;29;20060;-82